sensor_id;sensor_type;location;lat;lon;timestamp;P1;durP1;ratioP1;P2;durP2;ratioP2
23146;SDS011;11742;53.532;-1.478;2022-09-01T00:00:03;4.68;;;1.30;;
23146;SDS011;11742;53.532;-1.478;2022-09-01T00:02:32;3.20;;;0.93;;
23146;SDS011;11742;53.532;-1.478;2022-09-01T00:04:59;2.78;;;1.08;;
23146;SDS011;11742;53.532;-1.478;2022-09-01T00:07:27;1.45;;;0.85;;
23146;SDS011;11742;53.532;-1.478;2022-09-01T00:09:54;2.72;;;1.10;;
23146;SDS011;11742;53.532;-1.478;2022-09-01T00:12:20;2.28;;;1.20;;
23146;SDS011;11742;53.532;-1.478;2022-09-01T00:14:46;3.25;;;1.10;;
23146;SDS011;11742;53.532;-1.478;2022-09-01T00:17:12;2.13;;;1.40;;
23146;SDS011;11742;53.532;-1.478;2022-09-01T00:19:38;4.03;;;1.23;;
23146;SDS011;11742;53.532;-1.478;2022-09-01T00:22:04;3.58;;;1.52;;
23146;SDS011;11742;53.532;-1.478;2022-09-01T00:24:30;3.13;;;1.30;;
23146;SDS011;11742;53.532;-1.478;2022-09-01T00:26:56;2.28;;;1.30;;
23146;SDS011;11742;53.532;-1.478;2022-09-01T00:29:22;2.03;;;1.52;;
23146;SDS011;11742;53.532;-1.478;2022-09-01T00:31:49;2.83;;;1.30;;
23146;SDS011;11742;53.532;-1.478;2022-09-01T00:34:15;2.97;;;1.60;;
23146;SDS011;11742;53.532;-1.478;2022-09-01T00:36:42;2.25;;;1.20;;
23146;SDS011;11742;53.532;-1.478;2022-09-01T00:39:08;3.30;;;1.60;;
23146;SDS011;11742;53.532;-1.478;2022-09-01T00:41:35;2.15;;;1.20;;
23146;SDS011;11742;53.532;-1.478;2022-09-01T00:44:04;3.30;;;1.40;;
23146;SDS011;11742;53.532;-1.478;2022-09-01T00:46:33;1.85;;;1.17;;
23146;SDS011;11742;53.532;-1.478;2022-09-01T00:49:03;2.72;;;1.27;;
23146;SDS011;11742;53.532;-1.478;2022-09-01T00:51:33;2.47;;;1.30;;
23146;SDS011;11742;53.532;-1.478;2022-09-01T00:54:03;3.85;;;1.60;;
23146;SDS011;11742;53.532;-1.478;2022-09-01T00:56:31;2.78;;;1.40;;
23146;SDS011;11742;53.532;-1.478;2022-09-01T00:58:59;3.72;;;1.30;;
23146;SDS011;11742;53.532;-1.478;2022-09-01T01:01:26;2.60;;;1.10;;
23146;SDS011;11742;53.532;-1.478;2022-09-01T01:03:51;1.25;;;0.90;;
23146;SDS011;11742;53.532;-1.478;2022-09-01T01:06:17;1.38;;;0.90;;
23146;SDS011;11742;53.532;-1.478;2022-09-01T01:08:48;1.38;;;1.02;;
23146;SDS011;11742;53.532;-1.478;2022-09-01T01:11:25;2.78;;;1.10;;
23146;SDS011;11742;53.532;-1.478;2022-09-01T01:14:00;2.80;;;1.00;;
23146;SDS011;11742;53.532;-1.478;2022-09-01T01:16:40;3.55;;;1.20;;
23146;SDS011;11742;53.532;-1.478;2022-09-01T01:22:32;5.25;;;1.27;;
23146;SDS011;11742;53.532;-1.478;2022-09-01T01:25:42;2.17;;;1.00;;
23146;SDS011;11742;53.532;-1.478;2022-09-01T01:30:49;2.53;;;1.30;;
23146;SDS011;11742;53.532;-1.478;2022-09-01T01:33:24;1.52;;;0.80;;
23146;SDS011;11742;53.532;-1.478;2022-09-01T01:35:55;1.52;;;0.80;;
23146;SDS011;11742;53.532;-1.478;2022-09-01T01:38:22;2.10;;;1.33;;
23146;SDS011;11742;53.532;-1.478;2022-09-01T01:40:49;1.90;;;0.88;;
23146;SDS011;11742;53.532;-1.478;2022-09-01T01:43:16;6.32;;;1.10;;
23146;SDS011;11742;53.532;-1.478;2022-09-01T01:45:49;2.20;;;1.05;;
23146;SDS011;11742;53.532;-1.478;2022-09-01T01:48:20;1.20;;;0.80;;
23146;SDS011;11742;53.532;-1.478;2022-09-01T01:50:50;2.10;;;1.20;;
23146;SDS011;11742;53.532;-1.478;2022-09-01T01:53:17;2.50;;;1.00;;
23146;SDS011;11742;53.532;-1.478;2022-09-01T01:55:44;2.88;;;0.90;;
23146;SDS011;11742;53.532;-1.478;2022-09-01T01:58:14;2.33;;;1.08;;
23146;SDS011;11742;53.532;-1.478;2022-09-01T02:00:41;1.58;;;0.95;;
23146;SDS011;11742;53.532;-1.478;2022-09-01T02:03:10;1.25;;;0.82;;
23146;SDS011;11742;53.532;-1.478;2022-09-01T02:05:41;1.70;;;1.10;;
23146;SDS011;11742;53.532;-1.478;2022-09-01T02:08:08;2.08;;;1.27;;
23146;SDS011;11742;53.532;-1.478;2022-09-01T02:10:38;0.90;;;0.80;;
23146;SDS011;11742;53.532;-1.478;2022-09-01T02:13:06;2.08;;;1.00;;
23146;SDS011;11742;53.532;-1.478;2022-09-01T02:15:38;1.77;;;1.05;;
23146;SDS011;11742;53.532;-1.478;2022-09-01T02:18:18;3.97;;;1.10;;
23146;SDS011;11742;53.532;-1.478;2022-09-01T02:20:48;3.28;;;1.00;;
23146;SDS011;11742;53.532;-1.478;2022-09-01T02:23:16;3.45;;;1.08;;
23146;SDS011;11742;53.532;-1.478;2022-09-01T02:25:47;2.47;;;1.00;;
23146;SDS011;11742;53.532;-1.478;2022-09-01T02:28:15;3.58;;;1.10;;
23146;SDS011;11742;53.532;-1.478;2022-09-01T02:30:46;2.50;;;1.17;;
23146;SDS011;11742;53.532;-1.478;2022-09-01T02:33:16;2.95;;;1.10;;
23146;SDS011;11742;53.532;-1.478;2022-09-01T02:35:52;1.75;;;1.10;;
23146;SDS011;11742;53.532;-1.478;2022-09-01T02:38:19;3.15;;;1.08;;
23146;SDS011;11742;53.532;-1.478;2022-09-01T02:40:50;0.98;;;0.77;;
23146;SDS011;11742;53.532;-1.478;2022-09-01T02:43:18;1.55;;;0.85;;
23146;SDS011;11742;53.532;-1.478;2022-09-01T02:45:45;0.98;;;0.73;;
23146;SDS011;11742;53.532;-1.478;2022-09-01T02:48:12;2.30;;;1.30;;
23146;SDS011;11742;53.532;-1.478;2022-09-01T02:50:39;3.70;;;0.95;;
23146;SDS011;11742;53.532;-1.478;2022-09-01T02:53:05;1.45;;;0.90;;
23146;SDS011;11742;53.532;-1.478;2022-09-01T02:55:37;1.48;;;0.85;;
23146;SDS011;11742;53.532;-1.478;2022-09-01T02:58:04;3.40;;;1.05;;
23146;SDS011;11742;53.532;-1.478;2022-09-01T03:00:34;2.85;;;0.95;;
23146;SDS011;11742;53.532;-1.478;2022-09-01T03:03:04;1.77;;;0.90;;
23146;SDS011;11742;53.532;-1.478;2022-09-01T03:05:30;1.70;;;1.00;;
23146;SDS011;11742;53.532;-1.478;2022-09-01T03:08:00;1.77;;;1.00;;
23146;SDS011;11742;53.532;-1.478;2022-09-01T03:10:28;1.10;;;0.73;;
23146;SDS011;11742;53.532;-1.478;2022-09-01T03:13:00;1.20;;;0.88;;
23146;SDS011;11742;53.532;-1.478;2022-09-01T03:15:28;3.03;;;0.90;;
23146;SDS011;11742;53.532;-1.478;2022-09-01T03:17:55;2.70;;;0.80;;
23146;SDS011;11742;53.532;-1.478;2022-09-01T03:20:22;3.15;;;1.27;;
23146;SDS011;11742;53.532;-1.478;2022-09-01T03:22:48;1.63;;;0.93;;
23146;SDS011;11742;53.532;-1.478;2022-09-01T03:25:16;2.38;;;1.00;;
23146;SDS011;11742;53.532;-1.478;2022-09-01T03:27:42;3.92;;;1.05;;
23146;SDS011;11742;53.532;-1.478;2022-09-01T03:30:09;1.38;;;0.90;;
23146;SDS011;11742;53.532;-1.478;2022-09-01T03:32:35;1.17;;;0.93;;
23146;SDS011;11742;53.532;-1.478;2022-09-01T03:35:01;2.13;;;1.17;;
23146;SDS011;11742;53.532;-1.478;2022-09-01T03:37:27;5.28;;;1.33;;
23146;SDS011;11742;53.532;-1.478;2022-09-01T03:39:52;2.00;;;1.25;;
23146;SDS011;11742;53.532;-1.478;2022-09-01T03:42:19;1.90;;;0.80;;
23146;SDS011;11742;53.532;-1.478;2022-09-01T03:44:52;2.63;;;0.82;;
23146;SDS011;11742;53.532;-1.478;2022-09-01T03:47:20;2.05;;;0.77;;
23146;SDS011;11742;53.532;-1.478;2022-09-01T03:49:48;3.58;;;1.20;;
23146;SDS011;11742;53.532;-1.478;2022-09-01T03:52:18;1.35;;;0.85;;
23146;SDS011;11742;53.532;-1.478;2022-09-01T03:54:43;1.92;;;0.80;;
23146;SDS011;11742;53.532;-1.478;2022-09-01T03:57:10;2.45;;;0.90;;
23146;SDS011;11742;53.532;-1.478;2022-09-01T03:59:36;2.50;;;0.98;;
23146;SDS011;11742;53.532;-1.478;2022-09-01T04:02:07;1.20;;;0.95;;
23146;SDS011;11742;53.532;-1.478;2022-09-01T04:04:33;1.45;;;0.85;;
23146;SDS011;11742;53.532;-1.478;2022-09-01T04:06:58;3.47;;;0.98;;
23146;SDS011;11742;53.532;-1.478;2022-09-01T04:09:25;1.80;;;1.02;;
23146;SDS011;11742;53.532;-1.478;2022-09-01T04:11:51;2.05;;;1.13;;
23146;SDS011;11742;53.532;-1.478;2022-09-01T04:14:17;3.30;;;0.80;;
23146;SDS011;11742;53.532;-1.478;2022-09-01T04:16:43;4.18;;;0.90;;
23146;SDS011;11742;53.532;-1.478;2022-09-01T04:19:27;0.95;;;0.63;;
23146;SDS011;11742;53.532;-1.478;2022-09-01T04:21:57;1.40;;;0.88;;
23146;SDS011;11742;53.532;-1.478;2022-09-01T04:24:24;3.13;;;1.20;;
23146;SDS011;11742;53.532;-1.478;2022-09-01T04:26:56;3.25;;;0.98;;
23146;SDS011;11742;53.532;-1.478;2022-09-01T04:29:25;0.77;;;0.70;;
23146;SDS011;11742;53.532;-1.478;2022-09-01T04:31:55;1.92;;;0.70;;
23146;SDS011;11742;53.532;-1.478;2022-09-01T04:34:28;1.10;;;0.70;;
23146;SDS011;11742;53.532;-1.478;2022-09-01T04:37:01;0.98;;;0.70;;
23146;SDS011;11742;53.532;-1.478;2022-09-01T04:39:31;1.52;;;0.88;;
23146;SDS011;11742;53.532;-1.478;2022-09-01T04:41:56;1.42;;;0.70;;
23146;SDS011;11742;53.532;-1.478;2022-09-01T04:44:22;3.22;;;1.15;;
23146;SDS011;11742;53.532;-1.478;2022-09-01T04:46:49;2.53;;;0.80;;
23146;SDS011;11742;53.532;-1.478;2022-09-01T04:49:16;1.38;;;0.80;;
23146;SDS011;11742;53.532;-1.478;2022-09-01T04:51:47;2.80;;;0.82;;
23146;SDS011;11742;53.532;-1.478;2022-09-01T04:54:15;1.08;;;0.82;;
23146;SDS011;11742;53.532;-1.478;2022-09-01T04:56:42;2.25;;;1.05;;
23146;SDS011;11742;53.532;-1.478;2022-09-01T04:59:09;2.67;;;0.93;;
23146;SDS011;11742;53.532;-1.478;2022-09-01T05:01:38;2.58;;;1.00;;
23146;SDS011;11742;53.532;-1.478;2022-09-01T05:04:11;1.60;;;0.75;;
23146;SDS011;11742;53.532;-1.478;2022-09-01T05:06:42;1.52;;;0.80;;
23146;SDS011;11742;53.532;-1.478;2022-09-01T05:09:13;1.10;;;0.70;;
23146;SDS011;11742;53.532;-1.478;2022-09-01T05:11:41;2.05;;;0.80;;
23146;SDS011;11742;53.532;-1.478;2022-09-01T05:14:09;0.68;;;0.60;;
23146;SDS011;11742;53.532;-1.478;2022-09-01T05:16:36;1.92;;;0.80;;
23146;SDS011;11742;53.532;-1.478;2022-09-01T05:19:05;1.75;;;0.80;;
23146;SDS011;11742;53.532;-1.478;2022-09-01T05:21:34;1.35;;;0.88;;
23146;SDS011;11742;53.532;-1.478;2022-09-01T05:24:02;2.53;;;0.95;;
23146;SDS011;11742;53.532;-1.478;2022-09-01T05:26:29;1.58;;;0.80;;
23146;SDS011;11742;53.532;-1.478;2022-09-01T05:29:00;2.10;;;0.95;;
23146;SDS011;11742;53.532;-1.478;2022-09-01T05:31:34;1.60;;;0.80;;
23146;SDS011;11742;53.532;-1.478;2022-09-01T05:34:02;1.88;;;0.90;;
23146;SDS011;11742;53.532;-1.478;2022-09-01T05:36:28;1.85;;;0.95;;
23146;SDS011;11742;53.532;-1.478;2022-09-01T05:38:57;2.30;;;1.10;;
23146;SDS011;11742;53.532;-1.478;2022-09-01T05:41:24;1.02;;;0.80;;
23146;SDS011;11742;53.532;-1.478;2022-09-01T05:43:50;3.38;;;1.50;;
23146;SDS011;11742;53.532;-1.478;2022-09-01T05:46:17;1.90;;;0.90;;
23146;SDS011;11742;53.532;-1.478;2022-09-01T05:48:46;1.92;;;1.08;;
23146;SDS011;11742;53.532;-1.478;2022-09-01T05:51:14;1.80;;;0.90;;
23146;SDS011;11742;53.532;-1.478;2022-09-01T05:53:45;3.63;;;1.00;;
23146;SDS011;11742;53.532;-1.478;2022-09-01T05:56:16;1.77;;;0.90;;
23146;SDS011;11742;53.532;-1.478;2022-09-01T05:58:43;1.88;;;1.13;;
23146;SDS011;11742;53.532;-1.478;2022-09-01T06:01:30;1.27;;;0.70;;
23146;SDS011;11742;53.532;-1.478;2022-09-01T06:03:58;2.58;;;0.90;;
23146;SDS011;11742;53.532;-1.478;2022-09-01T06:06:29;2.13;;;1.00;;
23146;SDS011;11742;53.532;-1.478;2022-09-01T06:09:03;2.10;;;1.33;;
23146;SDS011;11742;53.532;-1.478;2022-09-01T06:11:29;1.35;;;0.80;;
23146;SDS011;11742;53.532;-1.478;2022-09-01T06:13:57;2.28;;;0.80;;
23146;SDS011;11742;53.532;-1.478;2022-09-01T06:16:23;1.80;;;0.75;;
23146;SDS011;11742;53.532;-1.478;2022-09-01T06:18:50;2.60;;;1.23;;
23146;SDS011;11742;53.532;-1.478;2022-09-01T06:21:18;1.85;;;1.00;;
23146;SDS011;11742;53.532;-1.478;2022-09-01T06:23:45;3.38;;;1.13;;
23146;SDS011;11742;53.532;-1.478;2022-09-01T06:26:28;2.33;;;1.00;;
23146;SDS011;11742;53.532;-1.478;2022-09-01T06:28:56;1.77;;;1.05;;
23146;SDS011;11742;53.532;-1.478;2022-09-01T06:31:26;1.35;;;0.90;;
23146;SDS011;11742;53.532;-1.478;2022-09-01T06:33:58;1.73;;;0.73;;
23146;SDS011;11742;53.532;-1.478;2022-09-01T06:36:25;3.15;;;1.10;;
23146;SDS011;11742;53.532;-1.478;2022-09-01T06:38:53;1.92;;;1.30;;
23146;SDS011;11742;53.532;-1.478;2022-09-01T06:41:20;1.30;;;1.00;;
23146;SDS011;11742;53.532;-1.478;2022-09-01T06:43:48;3.55;;;1.00;;
23146;SDS011;11742;53.532;-1.478;2022-09-01T06:46:16;1.30;;;0.80;;
23146;SDS011;11742;53.532;-1.478;2022-09-01T06:48:44;2.28;;;0.93;;
23146;SDS011;11742;53.532;-1.478;2022-09-01T06:51:11;1.70;;;0.93;;
23146;SDS011;11742;53.532;-1.478;2022-09-01T06:53:43;1.10;;;0.90;;
23146;SDS011;11742;53.532;-1.478;2022-09-01T06:56:09;2.55;;;0.80;;
23146;SDS011;11742;53.532;-1.478;2022-09-01T06:58:38;1.85;;;1.00;;
23146;SDS011;11742;53.532;-1.478;2022-09-01T07:01:08;2.20;;;0.90;;
23146;SDS011;11742;53.532;-1.478;2022-09-01T07:03:42;2.67;;;0.70;;
23146;SDS011;11742;53.532;-1.478;2022-09-01T07:06:09;3.08;;;1.00;;
23146;SDS011;11742;53.532;-1.478;2022-09-01T07:08:36;1.80;;;1.00;;
23146;SDS011;11742;53.532;-1.478;2022-09-01T07:11:04;3.30;;;1.20;;
23146;SDS011;11742;53.532;-1.478;2022-09-01T07:13:32;1.33;;;1.00;;
23146;SDS011;11742;53.532;-1.478;2022-09-01T07:15:59;1.05;;;0.93;;
23146;SDS011;11742;53.532;-1.478;2022-09-01T07:18:28;1.92;;;1.10;;
23146;SDS011;11742;53.532;-1.478;2022-09-01T07:20:55;1.00;;;0.60;;
23146;SDS011;11742;53.532;-1.478;2022-09-01T07:23:21;1.70;;;1.05;;
23146;SDS011;11742;53.532;-1.478;2022-09-01T07:25:48;1.23;;;0.70;;
23146;SDS011;11742;53.532;-1.478;2022-09-01T07:28:20;1.23;;;0.93;;
23146;SDS011;11742;53.532;-1.478;2022-09-01T07:30:48;1.23;;;0.90;;
23146;SDS011;11742;53.532;-1.478;2022-09-01T07:33:18;2.45;;;0.80;;
23146;SDS011;11742;53.532;-1.478;2022-09-01T07:35:47;2.05;;;0.80;;
23146;SDS011;11742;53.532;-1.478;2022-09-01T07:38:14;1.55;;;0.85;;
23146;SDS011;11742;53.532;-1.478;2022-09-01T07:40:42;1.88;;;0.80;;
23146;SDS011;11742;53.532;-1.478;2022-09-01T07:43:16;1.40;;;0.95;;
23146;SDS011;11742;53.532;-1.478;2022-09-01T07:45:56;1.65;;;1.02;;
23146;SDS011;11742;53.532;-1.478;2022-09-01T07:48:23;3.60;;;0.93;;
23146;SDS011;11742;53.532;-1.478;2022-09-01T07:50:52;1.63;;;1.00;;
23146;SDS011;11742;53.532;-1.478;2022-09-01T07:53:24;2.22;;;0.80;;
23146;SDS011;11742;53.532;-1.478;2022-09-01T07:55:56;3.05;;;1.17;;
23146;SDS011;11742;53.532;-1.478;2022-09-01T07:58:24;1.73;;;0.90;;
23146;SDS011;11742;53.532;-1.478;2022-09-01T08:00:51;2.80;;;1.08;;
23146;SDS011;11742;53.532;-1.478;2022-09-01T08:03:19;45.92;;;2.97;;
23146;SDS011;11742;53.532;-1.478;2022-09-01T08:05:47;9.25;;;1.50;;
23146;SDS011;11742;53.532;-1.478;2022-09-01T08:08:18;18.48;;;1.98;;
23146;SDS011;11742;53.532;-1.478;2022-09-01T08:10:44;5.40;;;1.15;;
23146;SDS011;11742;53.532;-1.478;2022-09-01T08:13:11;8.15;;;1.00;;
23146;SDS011;11742;53.532;-1.478;2022-09-01T08:15:37;12.95;;;1.63;;
23146;SDS011;11742;53.532;-1.478;2022-09-01T08:18:04;6.78;;;1.40;;
23146;SDS011;11742;53.532;-1.478;2022-09-01T08:20:31;5.97;;;0.90;;
23146;SDS011;11742;53.532;-1.478;2022-09-01T08:23:01;5.82;;;1.67;;
23146;SDS011;11742;53.532;-1.478;2022-09-01T08:25:28;2.72;;;0.80;;
23146;SDS011;11742;53.532;-1.478;2022-09-01T08:27:55;4.90;;;0.98;;
23146;SDS011;11742;53.532;-1.478;2022-09-01T08:30:21;3.10;;;0.80;;
23146;SDS011;11742;53.532;-1.478;2022-09-01T08:32:47;4.47;;;0.82;;
23146;SDS011;11742;53.532;-1.478;2022-09-01T08:35:14;2.70;;;0.95;;
23146;SDS011;11742;53.532;-1.478;2022-09-01T08:37:40;2.28;;;1.00;;
23146;SDS011;11742;53.532;-1.478;2022-09-01T08:40:09;2.05;;;0.77;;
23146;SDS011;11742;53.532;-1.478;2022-09-01T08:48:32;3.38;;;0.63;;
23146;SDS011;11742;53.532;-1.478;2022-09-01T08:51:11;2.03;;;0.70;;
23146;SDS011;11742;53.532;-1.478;2022-09-01T08:53:56;0.98;;;0.65;;
23146;SDS011;11742;53.532;-1.478;2022-09-01T08:56:35;0.85;;;0.60;;
23146;SDS011;11742;53.532;-1.478;2022-09-01T08:59:02;1.40;;;0.60;;
23146;SDS011;11742;53.532;-1.478;2022-09-01T09:10:10;0.43;;;0.38;;
23146;SDS011;11742;53.532;-1.478;2022-09-01T09:15:42;1.98;;;0.60;;
23146;SDS011;11742;53.532;-1.478;2022-09-01T09:21:23;0.70;;;0.70;;
23146;SDS011;11742;53.532;-1.478;2022-09-01T09:27:28;1.20;;;0.95;;
23146;SDS011;11742;53.532;-1.478;2022-09-01T09:29:58;1.02;;;0.63;;
23146;SDS011;11742;53.532;-1.478;2022-09-01T09:32:42;0.50;;;0.50;;
23146;SDS011;11742;53.532;-1.478;2022-09-01T09:35:39;1.20;;;0.60;;
23146;SDS011;11742;53.532;-1.478;2022-09-01T09:51:51;1.98;;;0.32;;
23146;SDS011;11742;53.532;-1.478;2022-09-01T09:54:20;0.80;;;0.57;;
23146;SDS011;11742;53.532;-1.478;2022-09-01T10:04:53;1.58;;;0.73;;
23146;SDS011;11742;53.532;-1.478;2022-09-01T10:07:27;2.20;;;0.55;;
23146;SDS011;11742;53.532;-1.478;2022-09-01T10:09:57;0.80;;;0.50;;
23146;SDS011;11742;53.532;-1.478;2022-09-01T10:12:24;1.70;;;0.60;;
23146;SDS011;11742;53.532;-1.478;2022-09-01T10:15:09;1.48;;;0.40;;
23146;SDS011;11742;53.532;-1.478;2022-09-01T10:17:37;1.20;;;0.50;;
23146;SDS011;11742;53.532;-1.478;2022-09-01T10:20:08;1.25;;;0.50;;
23146;SDS011;11742;53.532;-1.478;2022-09-01T10:22:39;1.45;;;0.63;;
23146;SDS011;11742;53.532;-1.478;2022-09-01T10:25:06;1.75;;;0.50;;
23146;SDS011;11742;53.532;-1.478;2022-09-01T10:27:39;0.68;;;0.50;;
23146;SDS011;11742;53.532;-1.478;2022-09-01T10:30:11;2.00;;;0.52;;
23146;SDS011;11742;53.532;-1.478;2022-09-01T10:32:43;2.75;;;0.50;;
23146;SDS011;11742;53.532;-1.478;2022-09-01T10:35:18;2.67;;;0.50;;
23146;SDS011;11742;53.532;-1.478;2022-09-01T10:37:45;1.25;;;0.60;;
23146;SDS011;11742;53.532;-1.478;2022-09-01T10:43:21;1.50;;;0.60;;
23146;SDS011;11742;53.532;-1.478;2022-09-01T10:46:09;2.67;;;0.45;;
23146;SDS011;11742;53.532;-1.478;2022-09-01T10:48:56;2.40;;;0.60;;
23146;SDS011;11742;53.532;-1.478;2022-09-01T10:53:52;0.63;;;0.32;;
23146;SDS011;11742;53.532;-1.478;2022-09-01T11:04:20;1.92;;;0.43;;
23146;SDS011;11742;53.532;-1.478;2022-09-01T11:06:54;1.55;;;0.70;;
23146;SDS011;11742;53.532;-1.478;2022-09-01T11:09:36;0.73;;;0.47;;
23146;SDS011;11742;53.532;-1.478;2022-09-01T11:19:54;2.83;;;0.50;;
23146;SDS011;11742;53.532;-1.478;2022-09-01T11:22:40;0.50;;;0.50;;
23146;SDS011;11742;53.532;-1.478;2022-09-01T11:30:56;0.85;;;0.52;;
23146;SDS011;11742;53.532;-1.478;2022-09-01T11:33:44;0.57;;;0.40;;
23146;SDS011;11742;53.532;-1.478;2022-09-01T11:38:55;0.57;;;0.50;;
23146;SDS011;11742;53.532;-1.478;2022-09-01T11:44:10;3.20;;;0.50;;
23146;SDS011;11742;53.532;-1.478;2022-09-01T11:46:39;0.98;;;0.52;;
23146;SDS011;11742;53.532;-1.478;2022-09-01T11:51:48;1.05;;;0.60;;
23146;SDS011;11742;53.532;-1.478;2022-09-01T11:54:14;0.75;;;0.40;;
23146;SDS011;11742;53.532;-1.478;2022-09-01T11:56:40;2.55;;;0.80;;
23146;SDS011;11742;53.532;-1.478;2022-09-01T11:59:06;2.03;;;0.77;;
23146;SDS011;11742;53.532;-1.478;2022-09-01T12:01:33;1.00;;;0.60;;
23146;SDS011;11742;53.532;-1.478;2022-09-01T12:04:23;0.80;;;0.47;;
23146;SDS011;11742;53.532;-1.478;2022-09-01T12:09:43;0.75;;;0.60;;
23146;SDS011;11742;53.532;-1.478;2022-09-01T12:15:02;1.65;;;0.57;;
23146;SDS011;11742;53.532;-1.478;2022-09-01T12:17:32;1.25;;;0.70;;
23146;SDS011;11742;53.532;-1.478;2022-09-01T12:20:18;1.27;;;0.60;;
23146;SDS011;11742;53.532;-1.478;2022-09-01T12:22:56;1.05;;;0.68;;
23146;SDS011;11742;53.532;-1.478;2022-09-01T12:25:28;1.60;;;0.90;;
23146;SDS011;11742;53.532;-1.478;2022-09-01T12:27:56;3.35;;;0.75;;
23146;SDS011;11742;53.532;-1.478;2022-09-01T12:30:24;0.85;;;0.50;;
23146;SDS011;11742;53.532;-1.478;2022-09-01T12:32:51;3.10;;;0.50;;
23146;SDS011;11742;53.532;-1.478;2022-09-01T12:35:24;2.20;;;0.70;;
23146;SDS011;11742;53.532;-1.478;2022-09-01T12:37:51;1.40;;;0.60;;
23146;SDS011;11742;53.532;-1.478;2022-09-01T12:40:37;1.42;;;0.65;;
23146;SDS011;11742;53.532;-1.478;2022-09-01T12:43:02;1.23;;;0.52;;
23146;SDS011;11742;53.532;-1.478;2022-09-01T12:45:38;1.95;;;0.75;;
23146;SDS011;11742;53.532;-1.478;2022-09-01T12:48:25;1.70;;;0.65;;
23146;SDS011;11742;53.532;-1.478;2022-09-01T12:51:00;1.85;;;0.80;;
23146;SDS011;11742;53.532;-1.478;2022-09-01T12:53:53;0.77;;;0.50;;
23146;SDS011;11742;53.532;-1.478;2022-09-01T12:56:33;2.08;;;0.65;;
23146;SDS011;11742;53.532;-1.478;2022-09-01T13:01:37;0.80;;;0.70;;
23146;SDS011;11742;53.532;-1.478;2022-09-01T13:04:25;1.95;;;0.70;;
23146;SDS011;11742;53.532;-1.478;2022-09-01T13:06:54;0.98;;;0.43;;
23146;SDS011;11742;53.532;-1.478;2022-09-01T13:09:26;1.02;;;0.52;;
23146;SDS011;11742;53.532;-1.478;2022-09-01T13:11:51;1.65;;;0.63;;
23146;SDS011;11742;53.532;-1.478;2022-09-01T13:14:17;1.48;;;0.60;;
23146;SDS011;11742;53.532;-1.478;2022-09-01T13:16:43;1.55;;;0.70;;
23146;SDS011;11742;53.532;-1.478;2022-09-01T13:19:09;0.50;;;0.50;;
23146;SDS011;11742;53.532;-1.478;2022-09-01T13:21:35;1.42;;;0.73;;
23146;SDS011;11742;53.532;-1.478;2022-09-01T13:24:02;2.53;;;0.60;;
23146;SDS011;11742;53.532;-1.478;2022-09-01T13:26:30;1.65;;;0.70;;
23146;SDS011;11742;53.532;-1.478;2022-09-01T13:28:57;2.20;;;0.70;;
23146;SDS011;11742;53.532;-1.478;2022-09-01T13:31:23;0.77;;;0.70;;
23146;SDS011;11742;53.532;-1.478;2022-09-01T13:33:49;0.65;;;0.55;;
23146;SDS011;11742;53.532;-1.478;2022-09-01T13:36:15;1.30;;;0.70;;
23146;SDS011;11742;53.532;-1.478;2022-09-01T13:38:41;1.50;;;0.60;;
23146;SDS011;11742;53.532;-1.478;2022-09-01T13:41:06;0.40;;;0.40;;
23146;SDS011;11742;53.532;-1.478;2022-09-01T13:43:34;0.57;;;0.57;;
23146;SDS011;11742;53.532;-1.478;2022-09-01T13:46:00;0.75;;;0.43;;
23146;SDS011;11742;53.532;-1.478;2022-09-01T13:48:26;1.33;;;0.57;;
23146;SDS011;11742;53.532;-1.478;2022-09-01T13:50:53;1.02;;;0.80;;
23146;SDS011;11742;53.532;-1.478;2022-09-01T13:53:19;2.97;;;0.60;;
23146;SDS011;11742;53.532;-1.478;2022-09-01T13:55:46;0.77;;;0.60;;
23146;SDS011;11742;53.532;-1.478;2022-09-01T13:58:12;1.02;;;0.60;;
23146;SDS011;11742;53.532;-1.478;2022-09-01T14:00:40;1.67;;;0.90;;
23146;SDS011;11742;53.532;-1.478;2022-09-01T14:03:09;3.40;;;0.73;;
23146;SDS011;11742;53.532;-1.478;2022-09-01T14:05:38;2.03;;;0.68;;
23146;SDS011;11742;53.532;-1.478;2022-09-01T14:08:06;3.78;;;0.95;;
23146;SDS011;11742;53.532;-1.478;2022-09-01T14:10:36;0.98;;;0.52;;
23146;SDS011;11742;53.532;-1.478;2022-09-01T14:13:03;1.40;;;0.70;;
23146;SDS011;11742;53.532;-1.478;2022-09-01T14:15:29;0.77;;;0.60;;
23146;SDS011;11742;53.532;-1.478;2022-09-01T14:17:55;1.58;;;0.82;;
23146;SDS011;11742;53.532;-1.478;2022-09-01T14:20:23;2.72;;;1.20;;
23146;SDS011;11742;53.532;-1.478;2022-09-01T14:22:51;1.50;;;0.55;;
23146;SDS011;11742;53.532;-1.478;2022-09-01T14:25:18;0.75;;;0.60;;
23146;SDS011;11742;53.532;-1.478;2022-09-01T14:27:45;1.27;;;0.60;;
23146;SDS011;11742;53.532;-1.478;2022-09-01T14:30:16;0.70;;;0.60;;
23146;SDS011;11742;53.532;-1.478;2022-09-01T14:32:46;0.93;;;0.65;;
23146;SDS011;11742;53.532;-1.478;2022-09-01T14:35:13;1.15;;;0.70;;
23146;SDS011;11742;53.532;-1.478;2022-09-01T14:37:39;1.73;;;0.60;;
23146;SDS011;11742;53.532;-1.478;2022-09-01T14:40:06;2.42;;;0.73;;
23146;SDS011;11742;53.532;-1.478;2022-09-01T14:42:33;1.45;;;0.95;;
23146;SDS011;11742;53.532;-1.478;2022-09-01T14:45:01;1.70;;;0.80;;
23146;SDS011;11742;53.532;-1.478;2022-09-01T14:47:28;2.80;;;0.82;;
23146;SDS011;11742;53.532;-1.478;2022-09-01T14:49:55;1.35;;;0.90;;
23146;SDS011;11742;53.532;-1.478;2022-09-01T14:52:21;3.22;;;0.80;;
23146;SDS011;11742;53.532;-1.478;2022-09-01T14:54:47;1.83;;;0.88;;
23146;SDS011;11742;53.532;-1.478;2022-09-01T14:57:13;2.33;;;0.85;;
23146;SDS011;11742;53.532;-1.478;2022-09-01T14:59:39;1.40;;;0.80;;
23146;SDS011;11742;53.532;-1.478;2022-09-01T15:02:06;4.13;;;0.73;;
23146;SDS011;11742;53.532;-1.478;2022-09-01T15:04:33;2.15;;;0.80;;
23146;SDS011;11742;53.532;-1.478;2022-09-01T15:07:00;1.08;;;0.63;;
23146;SDS011;11742;53.532;-1.478;2022-09-01T15:09:29;1.33;;;0.60;;
23146;SDS011;11742;53.532;-1.478;2022-09-01T15:11:54;1.85;;;0.80;;
23146;SDS011;11742;53.532;-1.478;2022-09-01T15:14:20;0.50;;;0.50;;
23146;SDS011;11742;53.532;-1.478;2022-09-01T15:16:46;4.03;;;0.70;;
23146;SDS011;11742;53.532;-1.478;2022-09-01T15:19:12;3.75;;;0.60;;
23146;SDS011;11742;53.532;-1.478;2022-09-01T15:21:39;1.13;;;0.73;;
23146;SDS011;11742;53.532;-1.478;2022-09-01T15:24:08;1.33;;;0.90;;
23146;SDS011;11742;53.532;-1.478;2022-09-01T15:26:34;1.80;;;0.70;;
23146;SDS011;11742;53.532;-1.478;2022-09-01T15:29:00;1.88;;;0.93;;
23146;SDS011;11742;53.532;-1.478;2022-09-01T15:31:28;1.52;;;0.60;;
23146;SDS011;11742;53.532;-1.478;2022-09-01T15:33:57;1.60;;;0.60;;
23146;SDS011;11742;53.532;-1.478;2022-09-01T15:36:25;0.85;;;0.70;;
23146;SDS011;11742;53.532;-1.478;2022-09-01T15:38:53;2.00;;;0.60;;
23146;SDS011;11742;53.532;-1.478;2022-09-01T15:41:24;0.50;;;0.50;;
23146;SDS011;11742;53.532;-1.478;2022-09-01T15:43:52;1.38;;;0.70;;
23146;SDS011;11742;53.532;-1.478;2022-09-01T15:46:18;1.88;;;0.60;;
23146;SDS011;11742;53.532;-1.478;2022-09-01T15:48:45;6.28;;;0.82;;
23146;SDS011;11742;53.532;-1.478;2022-09-01T15:53:54;9.05;;;1.20;;
23146;SDS011;11742;53.532;-1.478;2022-09-01T15:56:21;5.90;;;1.20;;
23146;SDS011;11742;53.532;-1.478;2022-09-01T15:58:48;2.28;;;0.70;;
23146;SDS011;11742;53.532;-1.478;2022-09-01T16:01:15;3.28;;;1.00;;
23146;SDS011;11742;53.532;-1.478;2022-09-01T16:03:42;2.53;;;0.90;;
23146;SDS011;11742;53.532;-1.478;2022-09-01T16:06:08;7.22;;;1.17;;
23146;SDS011;11742;53.532;-1.478;2022-09-01T16:08:34;3.30;;;0.93;;
23146;SDS011;11742;53.532;-1.478;2022-09-01T16:11:00;11.00;;;1.70;;
23146;SDS011;11742;53.532;-1.478;2022-09-01T16:16:18;13.10;;;2.13;;
23146;SDS011;11742;53.532;-1.478;2022-09-01T16:19:00;8.63;;;1.33;;
23146;SDS011;11742;53.532;-1.478;2022-09-01T16:24:21;4.65;;;1.13;;
23146;SDS011;11742;53.532;-1.478;2022-09-01T16:26:47;4.00;;;1.33;;
23146;SDS011;11742;53.532;-1.478;2022-09-01T16:29:28;5.93;;;1.23;;